createdAt,value
2018-08-22T00:00:07.724Z,1017.48
2018-08-22T00:01:07.739Z,1017.47
2018-08-22T00:02:07.866Z,1017.46
2018-08-22T00:03:07.734Z,1017.46
2018-08-22T00:04:07.782Z,1017.46
2018-08-22T00:05:07.773Z,1017.48
2018-08-22T00:06:07.770Z,1017.47
2018-08-22T00:07:07.782Z,1017.47
2018-08-22T00:08:07.815Z,1017.48
2018-08-22T00:09:07.796Z,1017.46
2018-08-22T00:10:07.851Z,1017.47
2018-08-22T00:11:07.830Z,1017.46
2018-08-22T00:12:07.838Z,1017.45
2018-08-22T00:13:07.857Z,1017.47
2018-08-22T00:14:07.867Z,1017.47
2018-08-22T00:15:07.925Z,1017.47
2018-08-22T00:16:07.860Z,1017.48
2018-08-22T00:17:07.874Z,1017.45
2018-08-22T00:18:07.919Z,1017.46
2018-08-22T00:19:07.906Z,1017.47
2018-08-22T00:20:07.943Z,1017.51
2018-08-22T00:21:08.036Z,1017.46
2018-08-22T00:22:07.943Z,1017.47
2018-08-22T00:23:07.984Z,1017.47
2018-08-22T00:24:07.981Z,1017.53
2018-08-22T00:25:07.956Z,1017.49
2018-08-22T00:26:08.002Z,1017.48
2018-08-22T00:27:08.067Z,1017.45
2018-08-22T00:28:07.982Z,1017.50
2018-08-22T00:29:08.046Z,1017.48
2018-08-22T00:30:08.030Z,1017.51
2018-08-22T00:31:08.031Z,1017.51
2018-08-22T00:32:08.034Z,1017.50
2018-08-22T00:33:08.107Z,1017.51
2018-08-22T00:34:08.089Z,1017.53
2018-08-22T00:35:08.080Z,1017.49
2018-08-22T00:36:08.086Z,1017.49
2018-08-22T00:37:08.109Z,1017.47
2018-08-22T00:38:08.142Z,1017.50
2018-08-22T00:39:08.112Z,1017.52
2018-08-22T00:40:08.150Z,1017.51
2018-08-22T00:41:08.204Z,1017.51
2018-08-22T00:42:08.152Z,1017.51
2018-08-22T00:43:08.189Z,1017.52
2018-08-22T00:44:08.216Z,1017.51
2018-08-22T00:45:08.212Z,1017.48
2018-08-22T00:46:08.205Z,1017.45
2018-08-22T00:47:08.219Z,1017.43
2018-08-22T00:48:08.260Z,1017.42
2018-08-22T00:49:08.255Z,1017.43
2018-08-22T00:50:08.244Z,1017.45
2018-08-22T00:51:08.250Z,1017.46
2018-08-22T00:52:08.254Z,1017.43
2018-08-22T00:53:08.262Z,1017.48
2018-08-22T00:54:08.332Z,1017.47
2018-08-22T00:55:08.331Z,1017.43
2018-08-22T00:56:08.309Z,1017.48
2018-08-22T00:57:08.302Z,1017.48
2018-08-22T00:58:08.333Z,1017.49
2018-08-22T00:59:08.326Z,1017.52
2018-08-22T01:00:08.378Z,1017.51
2018-08-22T01:01:08.329Z,1017.46
2018-08-22T01:02:08.347Z,1017.49
2018-08-22T01:03:08.371Z,1017.52
2018-08-22T01:04:08.365Z,1017.50
2018-08-22T01:05:08.426Z,1017.56
2018-08-22T01:06:08.388Z,1017.50
2018-08-22T01:07:08.400Z,1017.50
2018-08-22T01:08:08.448Z,1017.46
2018-08-22T01:09:08.451Z,1017.49
2018-08-22T01:10:08.453Z,1017.46
2018-08-22T01:11:08.427Z,1017.49
2018-08-22T01:12:08.447Z,1017.47
2018-08-22T01:13:08.477Z,1017.47
2018-08-22T01:14:08.486Z,1017.44
2018-08-22T01:15:08.561Z,1017.51
2018-08-22T01:16:08.485Z,1017.49
2018-08-22T01:17:08.508Z,1017.44
2018-08-22T01:18:08.543Z,1017.47
2018-08-22T01:19:08.524Z,1017.49
2018-08-22T01:20:08.564Z,1017.49
2018-08-22T01:21:08.628Z,1017.44
2018-08-22T01:22:08.557Z,1017.45
2018-08-22T01:23:08.553Z,1017.44
2018-08-22T01:24:08.589Z,1017.41
2018-08-22T01:25:08.603Z,1017.42
2018-08-22T01:26:08.607Z,1017.45
2018-08-22T01:27:08.642Z,1017.43
2018-08-22T01:28:08.636Z,1017.42
2018-08-22T01:29:08.623Z,1017.43
2018-08-22T01:30:08.642Z,1017.44
2018-08-22T01:31:08.715Z,1017.42
2018-08-22T01:32:08.814Z,1017.44
2018-08-22T01:33:08.681Z,1017.43
2018-08-22T01:34:08.678Z,1017.40
2018-08-22T01:35:08.693Z,1017.44
2018-08-22T01:36:08.738Z,1017.41
2018-08-22T01:37:08.783Z,1017.44
2018-08-22T01:38:08.709Z,1017.42
2018-08-22T01:39:08.740Z,1017.38
2018-08-22T01:40:08.759Z,1017.42
2018-08-22T01:41:08.760Z,1017.40
2018-08-22T01:42:08.762Z,1017.36
2018-08-22T01:43:08.823Z,1017.41
2018-08-22T01:44:08.775Z,1017.39
2018-08-22T01:45:08.802Z,1017.38
2018-08-22T01:46:08.810Z,1017.36
2018-08-22T01:47:08.810Z,1017.34
2018-08-22T01:48:08.870Z,1017.33
2018-08-22T01:49:08.840Z,1017.26
2018-08-22T01:50:08.884Z,1017.28
2018-08-22T01:51:08.889Z,1017.26
2018-08-22T01:52:08.883Z,1017.25
2018-08-22T01:53:08.920Z,1017.24
2018-08-22T01:54:08.899Z,1017.26
2018-08-22T01:55:08.932Z,1017.24
2018-08-22T01:56:08.914Z,1017.24
2018-08-22T01:57:09.010Z,1017.22
2018-08-22T01:58:09.045Z,1017.18
2018-08-22T01:59:08.979Z,1017.18
2018-08-22T02:00:09.000Z,1017.19
2018-08-22T02:01:08.980Z,1017.17
2018-08-22T02:02:08.965Z,1017.17
2018-08-22T02:03:09.001Z,1017.16
2018-08-22T02:04:09.013Z,1017.18
2018-08-22T02:05:09.033Z,1017.17
2018-08-22T02:06:09.037Z,1017.19
2018-08-22T02:07:09.039Z,1017.18
2018-08-22T02:08:09.040Z,1017.15
2018-08-22T02:09:09.047Z,1017.14
2018-08-22T02:10:09.087Z,1017.13
2018-08-22T02:11:09.094Z,1017.14
2018-08-22T02:12:09.081Z,1017.13
2018-08-22T02:13:09.086Z,1017.12
2018-08-22T02:14:09.106Z,1017.13
2018-08-22T02:15:09.194Z,1017.15
2018-08-22T02:16:09.135Z,1017.11
2018-08-22T02:17:09.118Z,1017.10
2018-08-22T02:18:09.139Z,1017.10
2018-08-22T02:19:09.132Z,1017.11
2018-08-22T02:20:09.179Z,1017.11
2018-08-22T02:21:09.203Z,1017.10
2018-08-22T02:22:09.214Z,1017.09
2018-08-22T02:23:09.246Z,1017.07
2018-08-22T02:24:09.204Z,1017.07
2018-08-22T02:25:09.322Z,1017.04
2018-08-22T02:26:09.298Z,1017.05
2018-08-22T02:27:09.244Z,1017.06
2018-08-22T02:28:09.352Z,1017.06
2018-08-22T02:29:09.256Z,1017.06
2018-08-22T02:30:09.298Z,1017.08
2018-08-22T02:31:09.323Z,1017.08
2018-08-22T02:32:09.296Z,1017.10
2018-08-22T02:33:09.297Z,1017.09
2018-08-22T02:34:09.304Z,1017.08
2018-08-22T02:35:09.335Z,1017.11
2018-08-22T02:36:09.349Z,1017.09
2018-08-22T02:37:09.384Z,1017.07
2018-08-22T02:38:09.398Z,1017.04
2018-08-22T02:39:09.388Z,1017.11
2018-08-22T02:40:09.409Z,1017.04
2018-08-22T02:41:09.396Z,1017.09
2018-08-22T02:42:09.426Z,1017.09
2018-08-22T02:43:09.438Z,1017.08
2018-08-22T02:44:09.425Z,1017.05
2018-08-22T02:45:09.431Z,1017.05
2018-08-22T02:46:09.435Z,1017.02
2018-08-22T02:47:09.423Z,1017.04
2018-08-22T02:48:09.507Z,1017.04
2018-08-22T02:49:09.451Z,1017.05
2018-08-22T02:50:09.500Z,1017.08
2018-08-22T02:51:09.487Z,1017.07
2018-08-22T02:52:09.570Z,1017.06
2018-08-22T02:53:09.641Z,1017.03
2018-08-22T02:54:09.532Z,1017.03
2018-08-22T02:55:09.522Z,1017.03
2018-08-22T02:56:09.542Z,1017.06
2018-08-22T02:57:09.551Z,1017.03
2018-08-22T02:58:09.593Z,1017.03
2018-08-22T02:59:09.566Z,1017.04
2018-08-22T03:00:09.556Z,1017.02
2018-08-22T03:01:09.578Z,1016.99
2018-08-22T03:02:09.613Z,1016.99
2018-08-22T03:03:09.625Z,1016.99
2018-08-22T03:04:09.661Z,1016.97
2018-08-22T03:05:09.602Z,1017.03
2018-08-22T03:06:09.656Z,1016.96
2018-08-22T03:07:09.630Z,1016.99
2018-08-22T03:08:09.652Z,1016.99
2018-08-22T03:09:09.717Z,1017.01
2018-08-22T03:10:09.670Z,1016.99
2018-08-22T03:11:09.681Z,1017.01
2018-08-22T03:12:09.693Z,1016.96
2018-08-22T03:13:09.701Z,1016.99
2018-08-22T03:14:09.697Z,1016.96
2018-08-22T03:15:09.735Z,1016.98
2018-08-22T03:16:09.716Z,1017.00
2018-08-22T03:17:09.833Z,1017.02
2018-08-22T03:18:09.762Z,1017.04
2018-08-22T03:19:09.744Z,1017.03
2018-08-22T03:20:09.795Z,1017.07
2018-08-22T03:21:09.815Z,1017.02
2018-08-22T03:22:09.807Z,1017.00
2018-08-22T03:23:09.824Z,1017.02
2018-08-22T03:24:09.868Z,1017.00
2018-08-22T03:25:09.833Z,1017.00
2018-08-22T03:26:09.912Z,1016.99
2018-08-22T03:27:09.865Z,1016.99
2018-08-22T03:28:09.851Z,1017.01
2018-08-22T03:29:09.925Z,1016.99
2018-08-22T03:30:09.898Z,1016.99
2018-08-22T03:31:09.895Z,1017.01
2018-08-22T03:32:09.902Z,1017.03
2018-08-22T03:33:09.893Z,1017.02
2018-08-22T03:34:09.948Z,1016.99
2018-08-22T03:35:09.957Z,1016.99
2018-08-22T03:36:09.939Z,1016.98
2018-08-22T03:37:09.939Z,1017.02
2018-08-22T03:38:09.972Z,1017.02
2018-08-22T03:39:10.002Z,1017.03
2018-08-22T03:40:09.978Z,1017.01
2018-08-22T03:41:10.028Z,1017.05
2018-08-22T03:42:10.019Z,1017.03
2018-08-22T03:43:09.995Z,1017.03
2018-08-22T03:44:10.006Z,1017.02
2018-08-22T03:45:10.058Z,1017.04
2018-08-22T03:46:10.079Z,1017.03
2018-08-22T03:47:10.038Z,1017.01
2018-08-22T03:48:10.051Z,1017.02
2018-08-22T03:49:10.054Z,1017.05
2018-08-22T03:50:10.094Z,1017.06
2018-08-22T03:51:10.118Z,1017.00
2018-08-22T03:52:10.080Z,1017.01
2018-08-22T03:53:10.189Z,1017.02
2018-08-22T03:54:10.123Z,1016.98
2018-08-22T03:55:10.132Z,1017.01
2018-08-22T03:56:10.143Z,1017.00
2018-08-22T03:57:10.143Z,1017.01
2018-08-22T03:58:10.215Z,1016.98
2018-08-22T03:59:10.182Z,1016.99
2018-08-22T04:00:10.202Z,1016.96
2018-08-22T04:01:10.198Z,1017.00
2018-08-22T04:02:10.206Z,1016.99
2018-08-22T04:03:10.257Z,1017.02
2018-08-22T04:04:10.272Z,1017.00
2018-08-22T04:05:10.230Z,1017.01
2018-08-22T04:06:10.239Z,1017.03
2018-08-22T04:07:10.272Z,1017.06
2018-08-22T04:08:10.255Z,1017.03
2018-08-22T04:09:10.307Z,1017.05
2018-08-22T04:10:10.292Z,1017.01
2018-08-22T04:11:10.307Z,1017.01
2018-08-22T04:12:10.324Z,1017.05
2018-08-22T04:13:10.331Z,1017.03
2018-08-22T04:14:10.375Z,1017.02
2018-08-22T04:15:10.345Z,1016.99
2018-08-22T04:16:10.339Z,1017.02
2018-08-22T04:17:10.361Z,1017.02
2018-08-22T04:18:10.348Z,1017.01
2018-08-22T04:19:10.414Z,1017.00
2018-08-22T04:20:10.388Z,1017.02
2018-08-22T04:21:10.389Z,1016.98
2018-08-22T04:22:10.422Z,1017.00
2018-08-22T04:23:10.427Z,1017.06
2018-08-22T04:24:10.435Z,1017.03
2018-08-22T04:25:10.421Z,1017.00
2018-08-22T04:26:10.480Z,1017.00
2018-08-22T04:27:10.472Z,1017.03
2018-08-22T04:28:10.493Z,1017.00
2018-08-22T04:29:10.463Z,1017.00
2018-08-22T04:30:10.490Z,1017.00
2018-08-22T04:31:10.486Z,1017.01
2018-08-22T04:32:10.541Z,1016.98
2018-08-22T04:33:10.541Z,1016.97
2018-08-22T04:34:10.520Z,1016.96
2018-08-22T04:35:10.520Z,1016.99
2018-08-22T04:36:10.536Z,1017.00
2018-08-22T04:37:10.560Z,1017.01
2018-08-22T04:38:10.597Z,1017.06
2018-08-22T04:39:10.605Z,1017.01
2018-08-22T04:40:10.592Z,1017.04
2018-08-22T04:41:10.594Z,1017.01
2018-08-22T04:42:10.590Z,1017.00
2018-08-22T04:43:10.647Z,1016.94
2018-08-22T04:44:10.682Z,1016.96
2018-08-22T04:45:10.635Z,1017.01
2018-08-22T04:46:10.656Z,1016.97
2018-08-22T04:47:10.639Z,1016.98
2018-08-22T04:48:10.686Z,1016.98
2018-08-22T04:49:10.702Z,1016.99
2018-08-22T04:50:10.684Z,1016.99
2018-08-22T04:51:10.679Z,1017.00
2018-08-22T04:52:10.706Z,1017.01
2018-08-22T04:53:10.713Z,1017.02
2018-08-22T04:54:10.773Z,1016.99
2018-08-22T04:55:10.759Z,1017.02
2018-08-22T04:56:10.731Z,1017.01
2018-08-22T04:57:10.745Z,1016.99
2018-08-22T04:58:10.757Z,1017.02
2018-08-22T04:59:10.801Z,1017.00
2018-08-22T05:00:10.822Z,1017.02
2018-08-22T05:01:10.811Z,1017.00
2018-08-22T05:02:10.830Z,1016.99
2018-08-22T05:03:10.811Z,1016.97
2018-08-22T05:04:10.819Z,1017.03
2018-08-22T05:05:10.882Z,1016.98
2018-08-22T05:06:10.859Z,1016.98
2018-08-22T05:07:10.845Z,1017.00
2018-08-22T05:08:10.856Z,1017.01
2018-08-22T05:09:10.905Z,1017.04
2018-08-22T05:10:10.923Z,1017.02
2018-08-22T05:11:10.971Z,1017.04
2018-08-22T05:12:10.925Z,1017.04
2018-08-22T05:13:10.948Z,1017.06
2018-08-22T05:14:10.948Z,1017.06
2018-08-22T05:15:10.947Z,1017.03
2018-08-22T05:16:10.971Z,1017.00
2018-08-22T05:17:11.019Z,1017.02
2018-08-22T05:18:10.976Z,1017.05
2018-08-22T05:19:11.020Z,1017.05
2018-08-22T05:20:11.049Z,1017.06
2018-08-22T05:21:11.012Z,1017.07
2018-08-22T05:22:11.029Z,1017.08
2018-08-22T05:23:11.075Z,1017.06
2018-08-22T05:24:11.049Z,1017.06
2018-08-22T05:25:11.060Z,1017.05
2018-08-22T05:26:11.066Z,1017.09
2018-08-22T05:27:11.090Z,1017.02
2018-08-22T05:28:11.163Z,1017.07
2018-08-22T05:29:11.098Z,1017.11
2018-08-22T05:30:11.157Z,1017.07
2018-08-22T05:31:11.135Z,1017.07
2018-08-22T05:32:11.120Z,1017.06
2018-08-22T05:33:11.175Z,1017.08
2018-08-22T05:34:11.190Z,1017.07
2018-08-22T05:35:11.174Z,1017.05
2018-08-22T05:36:11.180Z,1017.06
2018-08-22T05:37:11.212Z,1017.06
2018-08-22T05:38:11.189Z,1017.08
2018-08-22T05:39:11.277Z,1017.05
2018-08-22T05:40:11.234Z,1017.05
2018-08-22T05:41:11.235Z,1017.09
2018-08-22T05:42:11.271Z,1017.06
2018-08-22T05:43:11.247Z,1017.03
2018-08-22T05:44:11.291Z,1017.05
2018-08-22T05:45:11.291Z,1017.06
2018-08-22T05:46:11.313Z,1017.03
2018-08-22T05:47:11.397Z,1017.03
2018-08-22T05:48:11.303Z,1017.01
2018-08-22T05:49:11.409Z,1017.03
2018-08-22T05:50:11.888Z,1017.00
2018-08-22T05:51:11.537Z,1016.99
2018-08-22T05:52:11.376Z,1017.01
2018-08-22T05:53:11.401Z,1016.97
2018-08-22T05:54:11.405Z,1016.98
2018-08-22T05:55:11.398Z,1016.98
2018-08-22T05:56:11.426Z,1016.98
2018-08-22T05:57:11.446Z,1016.98
2018-08-22T05:58:11.449Z,1016.96
2018-08-22T05:59:11.453Z,1016.98
2018-08-22T06:00:11.478Z,1016.94
2018-08-22T06:01:11.465Z,1016.94
2018-08-22T06:02:11.517Z,1016.94
2018-08-22T06:03:11.509Z,1016.98
2018-08-22T06:04:11.530Z,1016.98
2018-08-22T06:05:11.572Z,1016.97
2018-08-22T06:06:11.535Z,1016.96
2018-08-22T06:07:11.521Z,1016.97
2018-08-22T06:08:11.561Z,1016.96
2018-08-22T06:09:11.682Z,1017.00
2018-08-22T06:10:11.706Z,1016.99
2018-08-22T06:11:11.590Z,1016.98
2018-08-22T06:12:11.666Z,1017.02
2018-08-22T06:13:11.615Z,1016.99
2018-08-22T06:14:11.654Z,1016.99
2018-08-22T06:15:11.633Z,1016.99
2018-08-22T06:16:11.628Z,1016.99
2018-08-22T06:17:11.711Z,1016.98
2018-08-22T06:18:11.675Z,1016.98
2018-08-22T06:19:11.748Z,1016.95
2018-08-22T06:20:11.773Z,1016.97
2018-08-22T06:21:11.721Z,1016.99
2018-08-22T06:22:11.728Z,1017.04
2018-08-22T06:23:11.714Z,1017.03
2018-08-22T06:24:11.768Z,1017.01
2018-08-22T06:25:11.770Z,1016.98
2018-08-22T06:26:11.794Z,1016.98
2018-08-22T06:27:11.803Z,1016.96
2018-08-22T06:28:11.809Z,1016.97
2018-08-22T06:29:11.817Z,1016.99
2018-08-22T06:30:11.834Z,1016.99
2018-08-22T06:31:11.815Z,1016.99
2018-08-22T06:32:11.879Z,1016.98
2018-08-22T06:33:11.908Z,1016.97
2018-08-22T06:34:11.852Z,1016.97
2018-08-22T06:35:11.870Z,1016.97
2018-08-22T06:36:11.923Z,1016.98
2018-08-22T06:37:11.892Z,1017.01
2018-08-22T06:38:11.944Z,1016.97
2018-08-22T06:39:11.948Z,1016.95
2018-08-22T06:40:11.924Z,1016.96
2018-08-22T06:41:11.971Z,1016.96
2018-08-22T06:42:11.976Z,1016.96
2018-08-22T06:43:11.981Z,1016.96
2018-08-22T06:44:12.048Z,1016.94
2018-08-22T06:45:12.042Z,1016.92
2018-08-22T06:46:12.021Z,1016.87
2018-08-22T06:47:12.043Z,1016.89
2018-08-22T06:48:12.107Z,1016.89
2018-08-22T06:49:12.039Z,1016.88
2018-08-22T06:50:12.078Z,1016.86
2018-08-22T06:51:12.113Z,1016.85
2018-08-22T06:52:12.106Z,1016.88
2018-08-22T06:53:12.134Z,1016.86
2018-08-22T06:54:12.095Z,1016.86
2018-08-22T06:55:12.115Z,1016.85
2018-08-22T06:56:12.172Z,1016.86
2018-08-22T06:57:12.224Z,1016.88
2018-08-22T06:58:12.155Z,1016.90
2018-08-22T06:59:12.187Z,1016.88
2018-08-22T07:00:12.187Z,1016.86
2018-08-22T07:01:12.244Z,1016.90
2018-08-22T07:02:12.204Z,1016.90
2018-08-22T07:03:12.230Z,1016.86
2018-08-22T07:04:12.216Z,1016.86
2018-08-22T07:05:12.258Z,1016.85
2018-08-22T07:06:12.284Z,1016.88
2018-08-22T07:07:12.281Z,1016.89
2018-08-22T07:08:12.318Z,1016.87
2018-08-22T07:09:12.298Z,1016.84
2018-08-22T07:10:12.340Z,1016.85
2018-08-22T07:11:12.319Z,1016.83
2018-08-22T07:12:12.326Z,1016.86
2018-08-22T07:13:12.369Z,1016.85
2018-08-22T07:14:12.454Z,1016.80
2018-08-22T07:15:12.352Z,1016.80
2018-08-22T07:16:12.382Z,1016.81
2018-08-22T07:17:12.442Z,1016.81
2018-08-22T07:18:12.422Z,1016.80
2018-08-22T07:19:12.425Z,1016.81
2018-08-22T07:20:12.436Z,1016.84
2018-08-22T07:21:12.532Z,1016.79
2018-08-22T07:22:12.462Z,1016.79
2018-08-22T07:23:12.494Z,1016.76
2018-08-22T07:24:12.488Z,1016.74
2018-08-22T07:25:12.494Z,1016.75
2018-08-22T07:26:12.520Z,1016.76
2018-08-22T07:27:12.552Z,1016.76
2018-08-22T07:28:12.536Z,1016.73
2018-08-22T07:29:12.554Z,1016.75
2018-08-22T07:30:12.580Z,1016.74
2018-08-22T07:31:12.545Z,1016.71
2018-08-22T07:32:12.601Z,1016.73
2018-08-22T07:33:12.661Z,1016.71
2018-08-22T07:34:12.597Z,1016.74
2018-08-22T07:35:12.606Z,1016.72
2018-08-22T07:36:12.638Z,1016.73
2018-08-22T07:37:12.644Z,1016.75
2018-08-22T07:38:12.741Z,1016.74
2018-08-22T07:39:12.665Z,1016.75
2018-08-22T07:40:12.685Z,1016.71
2018-08-22T07:41:12.756Z,1016.73
2018-08-22T07:42:12.718Z,1016.69
2018-08-22T07:43:12.794Z,1016.66
2018-08-22T07:44:12.703Z,1016.65
2018-08-22T07:45:12.755Z,1016.62
2018-08-22T07:46:12.756Z,1016.64
2018-08-22T07:47:12.830Z,1016.62
2018-08-22T07:48:12.764Z,1016.63
2018-08-22T07:49:12.808Z,1016.65
2018-08-22T07:50:12.833Z,1016.64
2018-08-22T07:51:12.799Z,1016.60
2018-08-22T07:52:12.811Z,1016.60
2018-08-22T07:53:12.860Z,1016.66
2018-08-22T07:54:12.842Z,1016.65
2018-08-22T07:55:12.966Z,1016.64
2018-08-22T07:56:12.877Z,1016.61
2018-08-22T07:57:12.866Z,1016.64
2018-08-22T07:58:12.928Z,1016.63
2018-08-22T07:59:12.906Z,1016.67
2018-08-22T08:00:13.011Z,1016.63
2018-08-22T08:01:12.973Z,1016.66
2018-08-22T08:02:12.927Z,1016.67
2018-08-22T08:03:12.957Z,1016.65
2018-08-22T08:04:12.960Z,1016.65
2018-08-22T08:05:12.981Z,1016.64
2018-08-22T08:06:13.027Z,1016.65
2018-08-22T08:07:12.996Z,1016.64
2018-08-22T08:08:13.017Z,1016.65
2018-08-22T08:09:13.047Z,1016.63
2018-08-22T08:10:13.012Z,1016.65
2018-08-22T08:11:13.089Z,1016.63
2018-08-22T08:12:13.077Z,1016.62
2018-08-22T08:13:13.101Z,1016.59
2018-08-22T08:14:13.074Z,1016.57
2018-08-22T08:15:13.075Z,1016.55
2018-08-22T08:16:13.158Z,1016.59
2018-08-22T08:17:13.148Z,1016.54
2018-08-22T08:18:13.122Z,1016.54
2018-08-22T08:19:13.179Z,1016.54
2018-08-22T08:20:13.142Z,1016.51
2018-08-22T08:21:13.160Z,1016.53
2018-08-22T08:22:13.212Z,1016.51
2018-08-22T08:23:13.212Z,1016.52
2018-08-22T08:24:13.230Z,1016.50
2018-08-22T08:25:13.207Z,1016.49
2018-08-22T08:26:13.240Z,1016.46
2018-08-22T08:27:13.238Z,1016.45
2018-08-22T08:28:13.236Z,1016.45
2018-08-22T08:29:13.240Z,1016.48
2018-08-22T08:30:13.298Z,1016.44
2018-08-22T08:31:13.300Z,1016.43
2018-08-22T08:32:13.285Z,1016.45
2018-08-22T08:33:13.310Z,1016.41
2018-08-22T08:34:13.326Z,1016.39
2018-08-22T08:35:13.357Z,1016.38
2018-08-22T08:36:13.401Z,1016.41
2018-08-22T08:37:13.339Z,1016.39
2018-08-22T08:38:13.369Z,1016.38
2018-08-22T08:39:13.434Z,1016.40
2018-08-22T08:40:13.415Z,1016.39
2018-08-22T08:41:13.387Z,1016.40
2018-08-22T08:42:13.473Z,1016.41
2018-08-22T08:43:13.459Z,1016.38
2018-08-22T08:44:13.450Z,1016.35
2018-08-22T08:45:13.457Z,1016.32
2018-08-22T08:46:13.460Z,1016.33
2018-08-22T08:47:13.473Z,1016.29
2018-08-22T08:48:13.471Z,1016.32
2018-08-22T08:49:13.484Z,1016.30
2018-08-22T08:50:13.501Z,1016.25
2018-08-22T08:51:13.537Z,1016.28
2018-08-22T08:52:13.528Z,1016.28
2018-08-22T08:53:13.604Z,1016.22
2018-08-22T08:54:13.560Z,1016.18
2018-08-22T08:55:13.565Z,1016.24
2018-08-22T08:56:13.588Z,1016.22
2018-08-22T08:57:13.749Z,1016.18
2018-08-22T08:58:13.624Z,1016.20
2018-08-22T08:59:13.669Z,1016.16
2018-08-22T09:00:13.643Z,1016.16
2018-08-22T09:01:13.627Z,1016.11
2018-08-22T09:02:13.649Z,1016.09
2018-08-22T09:03:13.756Z,1016.08
2018-08-22T09:04:13.693Z,1016.04
2018-08-22T09:05:13.719Z,1016.08
2018-08-22T09:06:13.695Z,1016.05
2018-08-22T09:07:13.735Z,1016.05
2018-08-22T09:08:13.742Z,1016.08
2018-08-22T09:09:13.765Z,1016.05
2018-08-22T09:10:13.812Z,1016.07
2018-08-22T09:11:13.751Z,1016.05
2018-08-22T09:12:13.767Z,1016.01
2018-08-22T09:13:13.793Z,1015.99
2018-08-22T09:14:13.803Z,1015.97
2018-08-22T09:15:13.855Z,1015.92
2018-08-22T09:16:13.844Z,1015.91
2018-08-22T09:17:13.848Z,1015.91
2018-08-22T09:18:13.839Z,1015.90
2018-08-22T09:19:13.867Z,1015.92
2018-08-22T09:20:13.866Z,1015.90
2018-08-22T09:21:13.974Z,1015.87
2018-08-22T09:22:13.881Z,1015.87
2018-08-22T09:23:13.932Z,1015.94
2018-08-22T09:24:13.941Z,1015.91
2018-08-22T09:25:13.932Z,1015.91
2018-08-22T09:26:13.972Z,1015.91
2018-08-22T09:27:13.970Z,1015.93
2018-08-22T09:28:14.070Z,1015.93
2018-08-22T09:29:14.019Z,1015.93
2018-08-22T09:30:13.977Z,1015.89
2018-08-22T09:31:14.005Z,1015.90
2018-08-22T09:32:14.048Z,1015.89
2018-08-22T09:33:14.024Z,1015.89
2018-08-22T09:34:14.025Z,1015.87
2018-08-22T09:35:14.052Z,1015.89
2018-08-22T09:36:14.063Z,1015.87
2018-08-22T09:37:14.106Z,1015.89
2018-08-22T09:38:14.081Z,1015.87
2018-08-22T09:39:14.097Z,1015.84
2018-08-22T09:40:14.222Z,1015.87
2018-08-22T09:41:14.173Z,1015.86
2018-08-22T09:42:14.200Z,1015.82
2018-08-22T09:43:14.209Z,1015.77
2018-08-22T09:44:14.195Z,1015.78
2018-08-22T09:45:14.189Z,1015.79
2018-08-22T09:46:14.186Z,1015.77
2018-08-22T09:47:14.250Z,1015.75
2018-08-22T09:48:14.260Z,1015.77
2018-08-22T09:49:14.243Z,1015.72
2018-08-22T09:50:14.223Z,1015.72
2018-08-22T09:51:14.295Z,1015.72
2018-08-22T09:52:14.320Z,1015.74
2018-08-22T09:53:14.317Z,1015.73
2018-08-22T09:54:14.340Z,1015.70
2018-08-22T09:55:14.312Z,1015.69
2018-08-22T09:56:14.337Z,1015.70
2018-08-22T09:57:14.347Z,1015.67
2018-08-22T09:58:14.459Z,1015.65
2018-08-22T09:59:14.388Z,1015.70
2018-08-22T10:00:14.472Z,1015.67
2018-08-22T10:01:14.388Z,1015.67
2018-08-22T10:02:14.394Z,1015.67
2018-08-22T10:03:14.396Z,1015.66
2018-08-22T10:04:14.411Z,1015.68
2018-08-22T10:05:14.513Z,1015.61
2018-08-22T10:06:14.486Z,1015.59
2018-08-22T10:07:14.490Z,1015.57
2018-08-22T10:08:14.530Z,1015.55
2018-08-22T10:09:14.510Z,1015.56
2018-08-22T10:10:14.560Z,1015.53
2018-08-22T10:11:14.524Z,1015.53
2018-08-22T10:12:14.515Z,1015.56
2018-08-22T10:13:14.690Z,1015.54
2018-08-22T10:14:14.544Z,1015.53
2018-08-22T10:15:14.581Z,1015.57
2018-08-22T10:16:14.657Z,1015.56
2018-08-22T10:17:14.628Z,1015.53
2018-08-22T10:18:14.593Z,1015.49
2018-08-22T10:19:14.612Z,1015.47
2018-08-22T10:20:14.632Z,1015.47
2018-08-22T10:21:14.682Z,1015.46
2018-08-22T10:22:14.682Z,1015.44
2018-08-22T10:23:14.694Z,1015.44
2018-08-22T10:24:14.697Z,1015.40
2018-08-22T10:25:14.719Z,1015.40
2018-08-22T10:26:14.724Z,1015.43
2018-08-22T10:27:14.795Z,1015.44
2018-08-22T10:28:14.743Z,1015.43
2018-08-22T10:29:14.752Z,1015.41
2018-08-22T10:30:14.752Z,1015.39
2018-08-22T10:31:14.763Z,1015.40
2018-08-22T10:32:14.832Z,1015.36
2018-08-22T10:33:14.779Z,1015.33
2018-08-22T10:34:14.816Z,1015.29
2018-08-22T10:35:14.993Z,1015.32
2018-08-22T10:36:14.819Z,1015.28
2018-08-22T10:37:14.880Z,1015.30
2018-08-22T10:38:14.893Z,1015.34
2018-08-22T10:39:14.854Z,1015.34
2018-08-22T10:40:14.885Z,1015.33
2018-08-22T10:41:14.887Z,1015.29
2018-08-22T10:42:14.922Z,1015.25
2018-08-22T10:43:14.952Z,1015.25
2018-08-22T10:44:14.946Z,1015.26
2018-08-22T10:45:14.941Z,1015.24
2018-08-22T10:46:14.956Z,1015.25
2018-08-22T10:47:14.997Z,1015.23
2018-08-22T10:48:15.041Z,1015.24
2018-08-22T10:49:14.979Z,1015.25
2018-08-22T10:50:15.057Z,1015.25
2018-08-22T10:51:15.046Z,1015.22
2018-08-22T10:52:15.038Z,1015.21
2018-08-22T10:53:15.095Z,1015.19
2018-08-22T10:54:15.056Z,1015.20
2018-08-22T10:55:15.184Z,1015.15
2018-08-22T10:56:15.171Z,1015.19
2018-08-22T10:57:15.093Z,1015.24
2018-08-22T10:58:15.232Z,1015.18
2018-08-22T10:59:15.217Z,1015.17
2018-08-22T11:00:15.166Z,1015.16
2018-08-22T11:01:15.151Z,1015.16
2018-08-22T11:02:15.258Z,1015.16
2018-08-22T11:03:15.270Z,1015.15
2018-08-22T11:04:15.178Z,1015.19
2018-08-22T11:05:15.238Z,1015.12
2018-08-22T11:06:15.287Z,1015.10
2018-08-22T11:07:15.273Z,1015.13
2018-08-22T11:08:15.245Z,1015.08
2018-08-22T11:09:15.341Z,1015.05
2018-08-22T11:10:15.271Z,1015.03
2018-08-22T11:11:15.301Z,1015.04
2018-08-22T11:12:15.295Z,1015.05
2018-08-22T11:13:15.344Z,1014.98
2018-08-22T11:14:15.385Z,1014.99
2018-08-22T11:15:15.357Z,1014.99
2018-08-22T11:16:15.319Z,1014.96
2018-08-22T11:17:15.361Z,1014.92
2018-08-22T11:18:15.386Z,1014.90
2018-08-22T11:19:15.445Z,1014.90
2018-08-22T11:20:15.419Z,1014.90
2018-08-22T11:21:15.379Z,1014.90
2018-08-22T11:22:15.457Z,1014.90
2018-08-22T11:23:15.412Z,1014.89
2018-08-22T11:24:15.464Z,1014.92
2018-08-22T11:25:15.495Z,1014.88
2018-08-22T11:26:15.484Z,1014.89
2018-08-22T11:27:15.447Z,1014.90
2018-08-22T11:28:15.485Z,1014.86
2018-08-22T11:29:15.499Z,1014.88
2018-08-22T11:30:15.567Z,1014.86
2018-08-22T11:31:15.516Z,1014.88
2018-08-22T11:32:15.536Z,1014.87
2018-08-22T11:33:15.569Z,1014.80
2018-08-22T11:34:15.610Z,1014.86
2018-08-22T11:35:15.629Z,1014.80
2018-08-22T11:36:15.590Z,1014.84
2018-08-22T11:37:15.606Z,1014.84
2018-08-22T11:38:15.621Z,1014.83
2018-08-22T11:39:15.633Z,1014.84
2018-08-22T11:40:15.685Z,1014.75
2018-08-22T11:41:15.677Z,1014.81
2018-08-22T11:42:15.646Z,1014.75
2018-08-22T11:43:15.709Z,1014.78
2018-08-22T11:44:15.702Z,1014.77
2018-08-22T11:45:15.731Z,1014.78
2018-08-22T11:46:15.760Z,1014.76
2018-08-22T11:47:15.742Z,1014.75
2018-08-22T11:48:15.738Z,1014.82
2018-08-22T11:49:15.753Z,1014.74
2018-08-22T11:50:15.807Z,1014.73
2018-08-22T11:51:15.851Z,1014.75
2018-08-22T11:52:15.824Z,1014.72
2018-08-22T11:53:15.859Z,1014.73
2018-08-22T11:54:15.930Z,1014.72
2018-08-22T11:55:15.847Z,1014.65
2018-08-22T11:56:15.828Z,1014.65
2018-08-22T11:57:15.849Z,1014.65
2018-08-22T11:58:15.898Z,1014.68
2018-08-22T11:59:15.921Z,1014.67
2018-08-22T12:00:15.900Z,1014.66
2018-08-22T12:01:15.978Z,1014.61
2018-08-22T12:02:15.924Z,1014.61
2018-08-22T12:03:15.999Z,1014.57
2018-08-22T12:04:15.958Z,1014.59
2018-08-22T12:05:16.045Z,1014.60